Tests — V7NV7 — position and weather

sailwx.info

Track history (hours):
 
Tides and Currents Weather Stations Pressure Air Temp Water Temp Dewpoint Dewpoint Depression Visibility Wind Speed Wind Dir Waves Ship Positions

Tests

Last reported at 2014-Dec-03 05:15 UTC. Time now 2014-Dec-22 01:24 UTC.
Position N 50°30' W 001°30'.
Warning: this ship's position is 18 days out of date.

Length 37 m; draft 5.7 m.

Type: Cargo ship. MMSI: 438003028.

Date/timePositionNaut miles runAvg speedWind from/ knotsBaromVisibWave heightAir tempDewpointWater temp
2014-Dec-03 05:15N 50°30' W 001°30'710.1
2014-Dec-03 04:33N 50°30' W 001°19'9 9.3
2014-Dec-03 03:33N 50°31' W 001°05'14 9.9
2014-Dec-03 02:09N 50°31' W 000°43'711.4
2014-Dec-03 01:31N 50°30' W 000°31'2412.1
2014-Dec-02 23:31N 50°33' E 000°07'1212.4
2014-Dec-02 22:33N 50°36' E 000°25'1211.7
2014-Dec-02 21:33N 50°41' E 000°41'1111.2
2014-Dec-02 20:33N 50°47' E 000°56'1210.4
2014-Dec-02 19:25N 50°54' E 001°11'910.2
2014-Dec-02 18:34N 51°01' E 001°21'1111.4
2014-Dec-02 17:33N 51°08' E 001°35'1212.2
2014-Dec-02 16:33N 51°17' E 001°48'1212.4
2014-Dec-02 15:33N 51°28' E 001°58'1212.1
2014-Dec-02 14:31N 51°37' E 002°11'8811.8
2014-Dec-02 07:07N 52°45' E 003°40'813.0
2014-Dec-02 06:28N 52°52' E 003°49'2613.0
2014-Dec-02 04:29N 53°09' E 004°20'1212.3
2014-Dec-02 03:30N 53°20' E 004°30'1010.6
2014-Dec-02 02:33N 53°29' E 004°38'1010.4
2014-Dec-02 01:33N 53°32' E 004°54'1110.7
2014-Dec-02 00:33N 53°36' E 005°11'1111.2
2014-Dec-01 23:33N 53°40' E 005°29'1212.1
2014-Dec-01 22:33N 53°44' E 005°48'1412.6
2014-Dec-01 21:26N 53°48' E 006°11'1712.6
2014-Dec-01 20:05N 53°52' E 006°39'612.3
2014-Dec-01 19:33N 53°54' E 006°50'1212.0
2014-Dec-01 18:33N 53°56' E 007°09'1211.5
2014-Dec-01 17:32N 53°59' E 007°29'10 9.7
2014-Dec-01 16:33N 53°55' E 007°44'1010.0
2014-Dec-01 15:32N 53°49' E 007°57'9 9.3
2014-Dec-01 14:33N 53°41' E 008°05'9 9.4
2014-Dec-01 13:33N 53°32' E 008°10'1 0.5
2014-Dec-01 12:28N 53°32' E 008°09'0 0.4
2014-Dec-01 11:31N 53°31' E 008°09'0 0.0
2014-Dec-01 10:31N 53°31' E 008°09'0 0.0
2014-Dec-01 09:31N 53°31' E 008°09'0 0.0
2014-Dec-01 08:31N 53°31' E 008°09'0 0.0
2014-Dec-01 07:31N 53°31' E 008°09'0 0.0
2014-Dec-01 06:31N 53°31' E 008°09'0 0.0
2014-Dec-01 05:31N 53°31' E 008°09'0 0.0
2014-Dec-01 04:31N 53°31' E 008°09'0 0.0
2014-Dec-01 03:31N 53°31' E 008°09'0 0.0
2014-Dec-01 02:28N 53°31' E 008°09'0 0.0
2014-Dec-01 01:25N 53°31' E 008°09'0 0.0
2014-Dec-01 00:31N 53°31' E 008°09'0 0.0
2014-Nov-30 23:31N 53°31' E 008°09'0 0.0
2014-Nov-30 22:31N 53°31' E 008°09'0 0.0
2014-Nov-30 21:31N 53°31' E 008°09'0 0.0
2014-Nov-30 20:31N 53°31' E 008°09'0 0.0
2014-Nov-30 19:31N 53°31' E 008°09'0 0.0
2014-Nov-30 18:31N 53°31' E 008°09'0 0.0
2014-Nov-30 17:31N 53°31' E 008°09'0 0.0
2014-Nov-30 16:31N 53°31' E 008°09'0 0.0
2014-Nov-30 15:31N 53°31' E 008°09'0 0.0
2014-Nov-30 14:31N 53°31' E 008°09'0 0.0
2014-Nov-30 13:31N 53°31' E 008°09'0 0.0
2014-Nov-30 12:31N 53°31' E 008°09'0 0.0
2014-Nov-30 11:31N 53°31' E 008°09'0 0.0
2014-Nov-30 10:31N 53°31' E 008°09'0 0.0
2014-Nov-30 09:31N 53°31' E 008°09'0 0.0
2014-Nov-30 08:31N 53°31' E 008°09'0 0.0
2014-Nov-30 07:31N 53°31' E 008°09'0 0.0
2014-Nov-30 06:31N 53°31' E 008°09'0 0.0
2014-Nov-30 05:31N 53°31' E 008°09'0 0.0
2014-Nov-30 04:31N 53°31' E 008°09'0 0.0
2014-Nov-30 03:31N 53°31' E 008°09'0 0.0
2014-Nov-30 02:31N 53°31' E 008°09'0 0.0
2014-Nov-30 01:28N 53°31' E 008°09'0 0.0
2014-Nov-30 00:31N 53°31' E 008°09'0 0.0
2014-Nov-29 23:31N 53°31' E 008°09'0 0.0
2014-Nov-29 22:31N 53°31' E 008°09'0 0.0
2014-Nov-29 21:31N 53°31' E 008°09'0 0.0
2014-Nov-29 20:31N 53°31' E 008°09'0 0.0
2014-Nov-29 19:31N 53°31' E 008°09'0 0.0
2014-Nov-29 18:31N 53°31' E 008°09'0 0.0
2014-Nov-29 17:28N 53°31' E 008°09'0 0.0
2014-Nov-29 16:31N 53°31' E 008°09'0 0.0
2014-Nov-29 15:31N 53°31' E 008°09'0 0.0
2014-Nov-29 14:31N 53°31' E 008°09'0 0.0
2014-Nov-29 13:31N 53°31' E 008°09'0 0.0
2014-Nov-29 12:31N 53°31' E 008°09'0 0.0
2014-Nov-29 11:31N 53°31' E 008°09'0 0.0
2014-Nov-29 10:28N 53°31' E 008°09'0 0.0
2014-Nov-29 09:31N 53°31' E 008°09'0 0.0
2014-Nov-29 08:31N 53°31' E 008°09'0 0.0
2014-Nov-29 07:31N 53°31' E 008°09'0 0.0
2014-Nov-29 06:31N 53°31' E 008°09'0 0.0
2014-Nov-29 05:31N 53°31' E 008°09'0 0.0
2014-Nov-29 04:31N 53°31' E 008°09'0 0.0
2014-Nov-29 03:31N 53°31' E 008°09'0 0.0
2014-Nov-29 02:31N 53°31' E 008°09'0 0.0
2014-Nov-29 01:31N 53°31' E 008°09'0 0.0
2014-Nov-29 00:31N 53°31' E 008°09'0 0.0
2014-Nov-28 23:31N 53°31' E 008°09'0 0.0
2014-Nov-28 22:31N 53°31' E 008°09'0 0.0
2014-Nov-28 21:28N 53°31' E 008°09'0 0.0
2014-Nov-28 20:31N 53°31' E 008°09'0 0.0
2014-Nov-28 19:31N 53°31' E 008°09'0 0.0
2014-Nov-28 18:31N 53°31' E 008°09'0 0.0
2014-Nov-28 17:31N 53°31' E 008°09'0 0.0
2014-Nov-28 16:31N 53°31' E 008°09'0 0.0
2014-Nov-28 15:31N 53°31' E 008°09'0 0.0
2014-Nov-28 14:31N 53°31' E 008°09'0 0.0
2014-Nov-28 13:31N 53°31' E 008°09'0 0.0
2014-Nov-28 12:31N 53°31' E 008°09'0 0.0
2014-Nov-28 11:31N 53°31' E 008°09'0 0.0
2014-Nov-28 10:31N 53°31' E 008°09'0 0.0
2014-Nov-28 09:31N 53°31' E 008°09'0 0.0
2014-Nov-28 08:31N 53°31' E 008°09'0 0.0
2014-Nov-28 07:31N 53°31' E 008°09'0 0.0
2014-Nov-28 06:31N 53°31' E 008°09'0 0.0
2014-Nov-28 05:28N 53°31' E 008°09'0 0.0
2014-Nov-28 04:31N 53°31' E 008°09'0 0.0
2014-Nov-28 03:31N 53°31' E 008°09'0 0.0
2014-Nov-28 02:31N 53°31' E 008°09'0 0.0
2014-Nov-28 01:31N 53°31' E 008°09'0 0.0
2014-Nov-28 00:31N 53°31' E 008°09'0 0.0
2014-Nov-27 23:31N 53°31' E 008°09'0 0.0
2014-Nov-27 22:31N 53°31' E 008°09'0 0.0
2014-Nov-27 21:25N 53°31' E 008°09'0 0.0
2014-Nov-27 20:28N 53°31' E 008°09'0 0.0
2014-Nov-27 19:32N 53°31' E 008°09'0 0.0
2014-Nov-27 18:31N 53°31' E 008°09'0 0.0
2014-Nov-27 17:31N 53°31' E 008°09'0 0.0
2014-Nov-27 16:31N 53°31' E 008°09'0 0.0
2014-Nov-27 15:31N 53°31' E 008°09'0 0.0
2014-Nov-27 14:31N 53°31' E 008°09'0 0.0
2014-Nov-27 13:31N 53°31' E 008°09'0 0.0
2014-Nov-27 12:31N 53°31' E 008°09'0 0.0
2014-Nov-27 11:31N 53°31' E 008°09'0 0.0
2014-Nov-27 10:31N 53°31' E 008°09'0 0.0
2014-Nov-27 09:31N 53°31' E 008°09'0 0.0
2014-Nov-27 08:31N 53°31' E 008°09'0 0.0
2014-Nov-27 07:31N 53°31' E 008°09'0 0.0
2014-Nov-27 06:31N 53°31' E 008°09'0 0.0
2014-Nov-27 05:31N 53°31' E 008°09'0 0.0
2014-Nov-27 04:31N 53°31' E 008°09'0 0.0
2014-Nov-27 03:31N 53°31' E 008°09'0 0.0
2014-Nov-27 02:31N 53°31' E 008°09'0 0.0
2014-Nov-27 01:31N 53°31' E 008°09'0 0.0
2014-Nov-27 00:31N 53°31' E 008°09'0 0.0
2014-Nov-26 23:31N 53°31' E 008°09'0 0.0
2014-Nov-26 22:31N 53°31' E 008°09'0 0.0
2014-Nov-26 21:31N 53°31' E 008°09'0 0.0
2014-Nov-26 20:31N 53°31' E 008°09'0 0.0
2014-Nov-26 19:31N 53°31' E 008°09'0 0.5
2014-Nov-26 18:33N 53°32' E 008°10'0 0.3
2014-Nov-26 17:33N 53°32' E 008°10'5 4.9
2014-Nov-26 16:34N 53°37' E 008°09'10 9.6
2014-Nov-26 15:34N 53°46' E 008°03'10 9.7
2014-Nov-26 14:34N 53°52' E 007°50'10 9.5
2014-Nov-26 13:33N 53°58' E 007°38'1212.1
2014-Nov-26 12:33N 54°09' E 007°28'1212.3
2014-Nov-26 11:33N 54°16' E 007°11'  
Track history (hours):
 
Tides and Currents Weather Stations Pressure Air Temp Water Temp Dewpoint Dewpoint Depression Visibility Wind Speed Wind Dir Waves Ship Positions

Tests

Last reported at 2014-Dec-03 05:15 UTC. Time now 2014-Dec-22 01:24 UTC.
Position N 50°30' W 001°30'.
Warning: this ship's position is 18 days out of date.

Length 37 m; draft 5.7 m.

Type: Cargo ship. MMSI: 438003028.

Date/timePositionNaut miles runAvg speedWind from/ knotsBaromVisibWave heightAir tempDewpointWater temp
2014-Dec-03 05:15N 50°30' W 001°30'710.1
2014-Dec-03 04:33N 50°30' W 001°19'9 9.3
2014-Dec-03 03:33N 50°31' W 001°05'14 9.9
2014-Dec-03 02:09N 50°31' W 000°43'711.4
2014-Dec-03 01:31N 50°30' W 000°31'2412.1
2014-Dec-02 23:31N 50°33' E 000°07'1212.4
2014-Dec-02 22:33N 50°36' E 000°25'1211.7
2014-Dec-02 21:33N 50°41' E 000°41'1111.2
2014-Dec-02 20:33N 50°47' E 000°56'1210.4
2014-Dec-02 19:25N 50°54' E 001°11'910.2
2014-Dec-02 18:34N 51°01' E 001°21'1111.4
2014-Dec-02 17:33N 51°08' E 001°35'1212.2
2014-Dec-02 16:33N 51°17' E 001°48'1212.4
2014-Dec-02 15:33N 51°28' E 001°58'1212.1
2014-Dec-02 14:31N 51°37' E 002°11'8811.8
2014-Dec-02 07:07N 52°45' E 003°40'813.0
2014-Dec-02 06:28N 52°52' E 003°49'2613.0
2014-Dec-02 04:29N 53°09' E 004°20'1212.3
2014-Dec-02 03:30N 53°20' E 004°30'1010.6
2014-Dec-02 02:33N 53°29' E 004°38'1010.4
2014-Dec-02 01:33N 53°32' E 004°54'1110.7
2014-Dec-02 00:33N 53°36' E 005°11'1111.2
2014-Dec-01 23:33N 53°40' E 005°29'1212.1
2014-Dec-01 22:33N 53°44' E 005°48'1412.6
2014-Dec-01 21:26N 53°48' E 006°11'1712.6
2014-Dec-01 20:05N 53°52' E 006°39'612.3
2014-Dec-01 19:33N 53°54' E 006°50'1212.0
2014-Dec-01 18:33N 53°56' E 007°09'1211.5
2014-Dec-01 17:32N 53°59' E 007°29'10 9.7
2014-Dec-01 16:33N 53°55' E 007°44'1010.0
2014-Dec-01 15:32N 53°49' E 007°57'9 9.3
2014-Dec-01 14:33N 53°41' E 008°05'9 9.4
2014-Dec-01 13:33N 53°32' E 008°10'1 0.5
2014-Dec-01 12:28N 53°32' E 008°09'0 0.4
2014-Dec-01 11:31N 53°31' E 008°09'0 0.0
2014-Dec-01 10:31N 53°31' E 008°09'0 0.0
2014-Dec-01 09:31N 53°31' E 008°09'0 0.0
2014-Dec-01 08:31N 53°31' E 008°09'0 0.0
2014-Dec-01 07:31N 53°31' E 008°09'0 0.0
2014-Dec-01 06:31N 53°31' E 008°09'0 0.0
2014-Dec-01 05:31N 53°31' E 008°09'0 0.0
2014-Dec-01 04:31N 53°31' E 008°09'0 0.0
2014-Dec-01 03:31N 53°31' E 008°09'0 0.0
2014-Dec-01 02:28N 53°31' E 008°09'0 0.0
2014-Dec-01 01:25N 53°31' E 008°09'0 0.0
2014-Dec-01 00:31N 53°31' E 008°09'0 0.0
2014-Nov-30 23:31N 53°31' E 008°09'0 0.0
2014-Nov-30 22:31N 53°31' E 008°09'0 0.0
2014-Nov-30 21:31N 53°31' E 008°09'0 0.0
2014-Nov-30 20:31N 53°31' E 008°09'0 0.0
2014-Nov-30 19:31N 53°31' E 008°09'0 0.0
2014-Nov-30 18:31N 53°31' E 008°09'0 0.0
2014-Nov-30 17:31N 53°31' E 008°09'0 0.0
2014-Nov-30 16:31N 53°31' E 008°09'0 0.0
2014-Nov-30 15:31N 53°31' E 008°09'0 0.0
2014-Nov-30 14:31N 53°31' E 008°09'0 0.0
2014-Nov-30 13:31N 53°31' E 008°09'0 0.0
2014-Nov-30 12:31N 53°31' E 008°09'0 0.0
2014-Nov-30 11:31N 53°31' E 008°09'0 0.0
2014-Nov-30 10:31N 53°31' E 008°09'0 0.0
2014-Nov-30 09:31N 53°31' E 008°09'0 0.0
2014-Nov-30 08:31N 53°31' E 008°09'0 0.0
2014-Nov-30 07:31N 53°31' E 008°09'0 0.0
2014-Nov-30 06:31N 53°31' E 008°09'0 0.0
2014-Nov-30 05:31N 53°31' E 008°09'0 0.0
2014-Nov-30 04:31N 53°31' E 008°09'0 0.0
2014-Nov-30 03:31N 53°31' E 008°09'0 0.0
2014-Nov-30 02:31N 53°31' E 008°09'0 0.0
2014-Nov-30 01:28N 53°31' E 008°09'0 0.0
2014-Nov-30 00:31N 53°31' E 008°09'0 0.0
2014-Nov-29 23:31N 53°31' E 008°09'0 0.0
2014-Nov-29 22:31N 53°31' E 008°09'0 0.0
2014-Nov-29 21:31N 53°31' E 008°09'0 0.0
2014-Nov-29 20:31N 53°31' E 008°09'0 0.0
2014-Nov-29 19:31N 53°31' E 008°09'0 0.0
2014-Nov-29 18:31N 53°31' E 008°09'0 0.0
2014-Nov-29 17:28N 53°31' E 008°09'0 0.0
2014-Nov-29 16:31N 53°31' E 008°09'0 0.0
2014-Nov-29 15:31N 53°31' E 008°09'0 0.0
2014-Nov-29 14:31N 53°31' E 008°09'0 0.0
2014-Nov-29 13:31N 53°31' E 008°09'0 0.0
2014-Nov-29 12:31N 53°31' E 008°09'0 0.0
2014-Nov-29 11:31N 53°31' E 008°09'0 0.0
2014-Nov-29 10:28N 53°31' E 008°09'0 0.0
2014-Nov-29 09:31N 53°31' E 008°09'0 0.0
2014-Nov-29 08:31N 53°31' E 008°09'0 0.0
2014-Nov-29 07:31N 53°31' E 008°09'0 0.0
2014-Nov-29 06:31N 53°31' E 008°09'0 0.0
2014-Nov-29 05:31N 53°31' E 008°09'0 0.0
2014-Nov-29 04:31N 53°31' E 008°09'0 0.0
2014-Nov-29 03:31N 53°31' E 008°09'0 0.0
2014-Nov-29 02:31N 53°31' E 008°09'0 0.0
2014-Nov-29 01:31N 53°31' E 008°09'0 0.0
2014-Nov-29 00:31N 53°31' E 008°09'0 0.0
2014-Nov-28 23:31N 53°31' E 008°09'0 0.0
2014-Nov-28 22:31N 53°31' E 008°09'0 0.0
2014-Nov-28 21:28N 53°31' E 008°09'0 0.0
2014-Nov-28 20:31N 53°31' E 008°09'0 0.0
2014-Nov-28 19:31N 53°31' E 008°09'0 0.0
2014-Nov-28 18:31N 53°31' E 008°09'0 0.0
2014-Nov-28 17:31N 53°31' E 008°09'0 0.0
2014-Nov-28 16:31N 53°31' E 008°09'0 0.0
2014-Nov-28 15:31N 53°31' E 008°09'0 0.0
2014-Nov-28 14:31N 53°31' E 008°09'0 0.0
2014-Nov-28 13:31N 53°31' E 008°09'0 0.0
2014-Nov-28 12:31N 53°31' E 008°09'0 0.0
2014-Nov-28 11:31N 53°31' E 008°09'0 0.0
2014-Nov-28 10:31N 53°31' E 008°09'0 0.0
2014-Nov-28 09:31N 53°31' E 008°09'0 0.0
2014-Nov-28 08:31N 53°31' E 008°09'0 0.0
2014-Nov-28 07:31N 53°31' E 008°09'0 0.0
2014-Nov-28 06:31N 53°31' E 008°09'0 0.0
2014-Nov-28 05:28N 53°31' E 008°09'0 0.0
2014-Nov-28 04:31N 53°31' E 008°09'0 0.0
2014-Nov-28 03:31N 53°31' E 008°09'0 0.0
2014-Nov-28 02:31N 53°31' E 008°09'0 0.0
2014-Nov-28 01:31N 53°31' E 008°09'0 0.0
2014-Nov-28 00:31N 53°31' E 008°09'0 0.0
2014-Nov-27 23:31N 53°31' E 008°09'0 0.0
2014-Nov-27 22:31N 53°31' E 008°09'0 0.0
2014-Nov-27 21:25N 53°31' E 008°09'0 0.0
2014-Nov-27 20:28N 53°31' E 008°09'0 0.0
2014-Nov-27 19:32N 53°31' E 008°09'0 0.0
2014-Nov-27 18:31N 53°31' E 008°09'0 0.0
2014-Nov-27 17:31N 53°31' E 008°09'0 0.0
2014-Nov-27 16:31N 53°31' E 008°09'0 0.0
2014-Nov-27 15:31N 53°31' E 008°09'0 0.0
2014-Nov-27 14:31N 53°31' E 008°09'0 0.0
2014-Nov-27 13:31N 53°31' E 008°09'0 0.0
2014-Nov-27 12:31N 53°31' E 008°09'0 0.0
2014-Nov-27 11:31N 53°31' E 008°09'0 0.0
2014-Nov-27 10:31N 53°31' E 008°09'0 0.0
2014-Nov-27 09:31N 53°31' E 008°09'0 0.0
2014-Nov-27 08:31N 53°31' E 008°09'0 0.0
2014-Nov-27 07:31N 53°31' E 008°09'0 0.0
2014-Nov-27 06:31N 53°31' E 008°09'0 0.0
2014-Nov-27 05:31N 53°31' E 008°09'0 0.0
2014-Nov-27 04:31N 53°31' E 008°09'0 0.0
2014-Nov-27 03:31N 53°31' E 008°09'0 0.0
2014-Nov-27 02:31N 53°31' E 008°09'0 0.0
2014-Nov-27 01:31N 53°31' E 008°09'0 0.0
2014-Nov-27 00:31N 53°31' E 008°09'0 0.0
2014-Nov-26 23:31N 53°31' E 008°09'0 0.0
2014-Nov-26 22:31N 53°31' E 008°09'0 0.0
2014-Nov-26 21:31N 53°31' E 008°09'0 0.0
2014-Nov-26 20:31N 53°31' E 008°09'0 0.0
2014-Nov-26 19:31N 53°31' E 008°09'0 0.5
2014-Nov-26 18:33N 53°32' E 008°10'0 0.3
2014-Nov-26 17:33N 53°32' E 008°10'5 4.9
2014-Nov-26 16:34N 53°37' E 008°09'10 9.6
2014-Nov-26 15:34N 53°46' E 008°03'10 9.7
2014-Nov-26 14:34N 53°52' E 007°50'10 9.5
2014-Nov-26 13:33N 53°58' E 007°38'1212.1
2014-Nov-26 12:33N 54°09' E 007°28'1212.3
2014-Nov-26 11:33N 54°16' E 007°11'  

Dump ship's entire track history